sensor_id;sensor_type;location;lat;lon;timestamp;temperature;humidity
45803;DHT22;31504;51.716;9.184;2023-04-15T00:01:10;20.80;44.20
45803;DHT22;31504;51.716;9.184;2023-04-15T00:04:11;20.90;44.30
45803;DHT22;31504;51.716;9.184;2023-04-15T00:07:11;20.90;44.30
45803;DHT22;31504;51.716;9.184;2023-04-15T00:10:12;20.90;44.30
45803;DHT22;31504;51.716;9.184;2023-04-15T00:13:13;20.90;44.30
45803;DHT22;31504;51.716;9.184;2023-04-15T00:16:14;20.80;44.20
45803;DHT22;31504;51.716;9.184;2023-04-15T00:19:14;20.80;44.30
45803;DHT22;31504;51.716;9.184;2023-04-15T00:22:15;20.80;44.30
45803;DHT22;31504;51.716;9.184;2023-04-15T00:25:16;20.80;44.20
45803;DHT22;31504;51.716;9.184;2023-04-15T00:28:17;20.80;44.20
45803;DHT22;31504;51.716;9.184;2023-04-15T00:31:17;20.80;44.30
45803;DHT22;31504;51.716;9.184;2023-04-15T00:34:18;20.80;44.20
45803;DHT22;31504;51.716;9.184;2023-04-15T00:37:18;20.80;44.30
45803;DHT22;31504;51.716;9.184;2023-04-15T00:40:19;20.80;44.20
45803;DHT22;31504;51.716;9.184;2023-04-15T00:43:20;20.70;44.30
45803;DHT22;31504;51.716;9.184;2023-04-15T00:46:21;20.70;44.40
45803;DHT22;31504;51.716;9.184;2023-04-15T00:49:21;20.70;44.30
45803;DHT22;31504;51.716;9.184;2023-04-15T00:52:22;20.70;44.20
45803;DHT22;31504;51.716;9.184;2023-04-15T00:55:22;20.70;44.20
45803;DHT22;31504;51.716;9.184;2023-04-15T00:58:23;20.70;44.20
45803;DHT22;31504;51.716;9.184;2023-04-15T01:01:24;20.70;44.20
45803;DHT22;31504;51.716;9.184;2023-04-15T01:04:25;20.70;44.10
45803;DHT22;31504;51.716;9.184;2023-04-15T01:07:25;20.70;44.00
45803;DHT22;31504;51.716;9.184;2023-04-15T01:10:26;20.70;44.10
45803;DHT22;31504;51.716;9.184;2023-04-15T01:13:26;20.60;44.00
45803;DHT22;31504;51.716;9.184;2023-04-15T01:16:27;20.60;43.90
45803;DHT22;31504;51.716;9.184;2023-04-15T01:19:28;20.60;44.00
45803;DHT22;31504;51.716;9.184;2023-04-15T01:22:28;20.60;43.80
45803;DHT22;31504;51.716;9.184;2023-04-15T01:25:32;20.60;43.90
45803;DHT22;31504;51.716;9.184;2023-04-15T01:28:33;20.60;43.90
45803;DHT22;31504;51.716;9.184;2023-04-15T01:31:33;20.60;43.90
45803;DHT22;31504;51.716;9.184;2023-04-15T01:34:34;20.60;43.90
45803;DHT22;31504;51.716;9.184;2023-04-15T01:37:35;20.60;43.80
45803;DHT22;31504;51.716;9.184;2023-04-15T01:40:36;20.60;43.90
45803;DHT22;31504;51.716;9.184;2023-04-15T01:43:36;20.60;43.80
45803;DHT22;31504;51.716;9.184;2023-04-15T01:46:37;20.60;43.80
45803;DHT22;31504;51.716;9.184;2023-04-15T01:49:46;20.60;43.80
45803;DHT22;31504;51.716;9.184;2023-04-15T01:52:47;20.60;43.80
45803;DHT22;31504;51.716;9.184;2023-04-15T01:55:47;20.60;43.80
45803;DHT22;31504;51.716;9.184;2023-04-15T01:58:48;20.60;43.70
45803;DHT22;31504;51.716;9.184;2023-04-15T02:01:48;20.60;43.70
45803;DHT22;31504;51.716;9.184;2023-04-15T02:04:49;20.60;43.70
45803;DHT22;31504;51.716;9.184;2023-04-15T02:07:49;20.60;43.70
45803;DHT22;31504;51.716;9.184;2023-04-15T02:10:50;20.60;43.70
45803;DHT22;31504;51.716;9.184;2023-04-15T02:13:50;20.60;43.70
45803;DHT22;31504;51.716;9.184;2023-04-15T02:16:51;20.60;43.70
45803;DHT22;31504;51.716;9.184;2023-04-15T02:19:51;20.60;43.70
45803;DHT22;31504;51.716;9.184;2023-04-15T02:22:52;20.60;43.60
45803;DHT22;31504;51.716;9.184;2023-04-15T02:25:52;20.60;43.60
45803;DHT22;31504;51.716;9.184;2023-04-15T02:28:53;20.60;43.60
45803;DHT22;31504;51.716;9.184;2023-04-15T02:31:53;20.60;43.60
45803;DHT22;31504;51.716;9.184;2023-04-15T02:34:54;20.60;43.60
45803;DHT22;31504;51.716;9.184;2023-04-15T02:37:54;20.60;43.50
45803;DHT22;31504;51.716;9.184;2023-04-15T02:40:55;20.60;43.60
45803;DHT22;31504;51.716;9.184;2023-04-15T02:43:56;20.60;43.50
45803;DHT22;31504;51.716;9.184;2023-04-15T02:46:57;20.60;43.50
45803;DHT22;31504;51.716;9.184;2023-04-15T02:49:57;20.60;43.60
45803;DHT22;31504;51.716;9.184;2023-04-15T02:52:59;20.60;43.50
45803;DHT22;31504;51.716;9.184;2023-04-15T02:56:03;20.60;43.50
45803;DHT22;31504;51.716;9.184;2023-04-15T02:59:05;20.60;43.50
45803;DHT22;31504;51.716;9.184;2023-04-15T03:02:05;20.60;43.60
45803;DHT22;31504;51.716;9.184;2023-04-15T03:05:11;20.60;43.60
45803;DHT22;31504;51.716;9.184;2023-04-15T03:08:11;20.60;43.50
45803;DHT22;31504;51.716;9.184;2023-04-15T03:11:14;20.60;43.60
45803;DHT22;31504;51.716;9.184;2023-04-15T03:14:14;20.60;43.70
45803;DHT22;31504;51.716;9.184;2023-04-15T03:17:14;20.60;43.50
45803;DHT22;31504;51.716;9.184;2023-04-15T03:20:15;20.60;43.50
45803;DHT22;31504;51.716;9.184;2023-04-15T03:23:16;20.60;43.50
45803;DHT22;31504;51.716;9.184;2023-04-15T03:26:29;20.60;43.50
45803;DHT22;31504;51.716;9.184;2023-04-15T03:29:30;20.60;43.50
45803;DHT22;31504;51.716;9.184;2023-04-15T03:32:30;20.60;43.50
45803;DHT22;31504;51.716;9.184;2023-04-15T03:35:31;20.50;43.50
45803;DHT22;31504;51.716;9.184;2023-04-15T03:38:32;20.60;43.50
45803;DHT22;31504;51.716;9.184;2023-04-15T03:41:32;20.60;43.40
45803;DHT22;31504;51.716;9.184;2023-04-15T03:44:32;20.60;43.40
45803;DHT22;31504;51.716;9.184;2023-04-15T03:47:33;20.60;43.40
45803;DHT22;31504;51.716;9.184;2023-04-15T03:50:33;20.60;43.40
45803;DHT22;31504;51.716;9.184;2023-04-15T03:53:34;20.60;44.00
45803;DHT22;31504;51.716;9.184;2023-04-15T03:56:34;20.50;43.40
45803;DHT22;31504;51.716;9.184;2023-04-15T03:59:35;20.60;43.40
45803;DHT22;31504;51.716;9.184;2023-04-15T04:02:35;20.60;43.40
45803;DHT22;31504;51.716;9.184;2023-04-15T04:05:36;20.60;43.40
45803;DHT22;31504;51.716;9.184;2023-04-15T04:08:38;20.60;43.40
45803;DHT22;31504;51.716;9.184;2023-04-15T04:11:38;20.60;43.40
45803;DHT22;31504;51.716;9.184;2023-04-15T04:14:39;20.60;43.40
45803;DHT22;31504;51.716;9.184;2023-04-15T04:17:39;20.60;43.30
45803;DHT22;31504;51.716;9.184;2023-04-15T04:20:40;20.60;43.30
45803;DHT22;31504;51.716;9.184;2023-04-15T04:23:40;20.60;43.40
45803;DHT22;31504;51.716;9.184;2023-04-15T04:26:41;20.50;43.30
45803;DHT22;31504;51.716;9.184;2023-04-15T04:29:41;20.50;43.40
45803;DHT22;31504;51.716;9.184;2023-04-15T04:32:42;20.50;43.30
45803;DHT22;31504;51.716;9.184;2023-04-15T04:35:42;20.60;43.40
45803;DHT22;31504;51.716;9.184;2023-04-15T04:38:42;20.60;43.30
45803;DHT22;31504;51.716;9.184;2023-04-15T04:41:43;20.50;43.20
45803;DHT22;31504;51.716;9.184;2023-04-15T04:44:43;20.50;43.30
45803;DHT22;31504;51.716;9.184;2023-04-15T04:47:44;20.60;43.20
45803;DHT22;31504;51.716;9.184;2023-04-15T04:50:45;20.60;43.30
45803;DHT22;31504;51.716;9.184;2023-04-15T04:53:46;20.50;43.20
45803;DHT22;31504;51.716;9.184;2023-04-15T04:56:46;20.50;43.20
45803;DHT22;31504;51.716;9.184;2023-04-15T04:59:47;20.50;43.30
45803;DHT22;31504;51.716;9.184;2023-04-15T05:02:47;20.50;43.30
45803;DHT22;31504;51.716;9.184;2023-04-15T05:05:48;20.60;43.30
45803;DHT22;31504;51.716;9.184;2023-04-15T05:08:48;20.60;43.20
45803;DHT22;31504;51.716;9.184;2023-04-15T05:11:49;20.60;43.20
45803;DHT22;31504;51.716;9.184;2023-04-15T05:14:49;20.50;43.10
45803;DHT22;31504;51.716;9.184;2023-04-15T05:17:50;20.60;43.20
45803;DHT22;31504;51.716;9.184;2023-04-15T05:20:50;20.60;43.20
45803;DHT22;31504;51.716;9.184;2023-04-15T05:23:51;20.60;43.20
45803;DHT22;31504;51.716;9.184;2023-04-15T05:26:51;20.60;43.20
45803;DHT22;31504;51.716;9.184;2023-04-15T05:29:52;20.60;43.20
45803;DHT22;31504;51.716;9.184;2023-04-15T05:32:52;20.60;43.20
45803;DHT22;31504;51.716;9.184;2023-04-15T05:35:53;20.60;43.30
45803;DHT22;31504;51.716;9.184;2023-04-15T05:38:53;20.60;43.30
45803;DHT22;31504;51.716;9.184;2023-04-15T05:41:55;20.60;43.20
45803;DHT22;31504;51.716;9.184;2023-04-15T05:44:56;20.50;43.20
45803;DHT22;31504;51.716;9.184;2023-04-15T05:47:57;20.60;43.20
45803;DHT22;31504;51.716;9.184;2023-04-15T05:50:58;20.60;43.10
45803;DHT22;31504;51.716;9.184;2023-04-15T05:53:58;20.60;43.10
45803;DHT22;31504;51.716;9.184;2023-04-15T05:56:59;20.60;43.10
45803;DHT22;31504;51.716;9.184;2023-04-15T06:00:00;20.60;43.00
45803;DHT22;31504;51.716;9.184;2023-04-15T06:03:00;20.60;43.00
45803;DHT22;31504;51.716;9.184;2023-04-15T06:06:01;20.60;43.00
45803;DHT22;31504;51.716;9.184;2023-04-15T06:09:01;20.60;43.00
45803;DHT22;31504;51.716;9.184;2023-04-15T06:12:02;20.60;43.10
45803;DHT22;31504;51.716;9.184;2023-04-15T06:15:02;20.60;43.10
45803;DHT22;31504;51.716;9.184;2023-04-15T06:18:03;20.60;43.30
45803;DHT22;31504;51.716;9.184;2023-04-15T06:21:04;20.60;43.40
45803;DHT22;31504;51.716;9.184;2023-04-15T06:24:04;20.60;43.30
45803;DHT22;31504;51.716;9.184;2023-04-15T06:27:05;20.60;43.40
45803;DHT22;31504;51.716;9.184;2023-04-15T06:30:06;20.60;43.40
45803;DHT22;31504;51.716;9.184;2023-04-15T06:33:07;20.60;43.50
45803;DHT22;31504;51.716;9.184;2023-04-15T06:36:07;20.60;43.60
45803;DHT22;31504;51.716;9.184;2023-04-15T06:39:08;20.60;43.70
45803;DHT22;31504;51.716;9.184;2023-04-15T06:42:08;20.60;43.70
45803;DHT22;31504;51.716;9.184;2023-04-15T06:45:09;20.60;43.70
45803;DHT22;31504;51.716;9.184;2023-04-15T06:48:10;20.60;43.70
45803;DHT22;31504;51.716;9.184;2023-04-15T06:51:10;20.60;43.70
45803;DHT22;31504;51.716;9.184;2023-04-15T06:54:11;20.60;43.70
45803;DHT22;31504;51.716;9.184;2023-04-15T06:57:12;20.60;43.70
45803;DHT22;31504;51.716;9.184;2023-04-15T07:00:12;20.60;43.70
45803;DHT22;31504;51.716;9.184;2023-04-15T07:03:13;20.60;43.70
45803;DHT22;31504;51.716;9.184;2023-04-15T07:06:14;20.60;43.70
45803;DHT22;31504;51.716;9.184;2023-04-15T07:09:14;20.60;43.70
45803;DHT22;31504;51.716;9.184;2023-04-15T07:12:15;20.60;43.70
45803;DHT22;31504;51.716;9.184;2023-04-15T07:15:15;20.60;43.70
45803;DHT22;31504;51.716;9.184;2023-04-15T07:18:16;20.60;43.70
45803;DHT22;31504;51.716;9.184;2023-04-15T07:21:16;20.60;43.70
45803;DHT22;31504;51.716;9.184;2023-04-15T07:24:17;20.60;43.70
45803;DHT22;31504;51.716;9.184;2023-04-15T07:27:19;20.60;43.70
45803;DHT22;31504;51.716;9.184;2023-04-15T07:30:20;20.60;43.70
45803;DHT22;31504;51.716;9.184;2023-04-15T07:33:20;20.60;43.70
45803;DHT22;31504;51.716;9.184;2023-04-15T07:36:21;20.60;43.70
45803;DHT22;31504;51.716;9.184;2023-04-15T07:39:21;20.60;43.70
45803;DHT22;31504;51.716;9.184;2023-04-15T07:42:22;20.60;43.70
45803;DHT22;31504;51.716;9.184;2023-04-15T07:45:23;20.60;43.70
45803;DHT22;31504;51.716;9.184;2023-04-15T07:48:23;20.60;43.80
45803;DHT22;31504;51.716;9.184;2023-04-15T07:51:24;20.60;43.80
45803;DHT22;31504;51.716;9.184;2023-04-15T07:54:24;20.60;43.80
45803;DHT22;31504;51.716;9.184;2023-04-15T07:57:25;20.60;43.80
45803;DHT22;31504;51.716;9.184;2023-04-15T08:00:25;20.60;43.80
45803;DHT22;31504;51.716;9.184;2023-04-15T08:03:26;20.60;43.80
45803;DHT22;31504;51.716;9.184;2023-04-15T08:06:26;20.60;43.80
45803;DHT22;31504;51.716;9.184;2023-04-15T08:09:27;20.60;43.80
45803;DHT22;31504;51.716;9.184;2023-04-15T08:12:27;20.60;43.80
45803;DHT22;31504;51.716;9.184;2023-04-15T08:15:28;20.60;43.90
45803;DHT22;31504;51.716;9.184;2023-04-15T08:18:28;20.60;43.90
45803;DHT22;31504;51.716;9.184;2023-04-15T08:21:28;20.60;44.00
45803;DHT22;31504;51.716;9.184;2023-04-15T08:24:30;20.60;44.00
45803;DHT22;31504;51.716;9.184;2023-04-15T08:27:30;20.60;44.00
45803;DHT22;31504;51.716;9.184;2023-04-15T08:30:31;20.60;44.00
45803;DHT22;31504;51.716;9.184;2023-04-15T08:33:31;20.60;44.10
45803;DHT22;31504;51.716;9.184;2023-04-15T08:36:32;20.70;44.20
45803;DHT22;31504;51.716;9.184;2023-04-15T08:39:32;20.60;44.10
45803;DHT22;31504;51.716;9.184;2023-04-15T08:42:37;20.60;44.10
45803;DHT22;31504;51.716;9.184;2023-04-15T08:45:40;20.70;44.20
45803;DHT22;31504;51.716;9.184;2023-04-15T08:48:41;20.60;44.10
45803;DHT22;31504;51.716;9.184;2023-04-15T08:51:42;20.60;44.10
45803;DHT22;31504;51.716;9.184;2023-04-15T08:54:42;20.60;44.10
45803;DHT22;31504;51.716;9.184;2023-04-15T08:57:43;20.70;44.20
45803;DHT22;31504;51.716;9.184;2023-04-15T09:00:44;20.60;44.10
45803;DHT22;31504;51.716;9.184;2023-04-15T09:03:45;20.60;44.20
45803;DHT22;31504;51.716;9.184;2023-04-15T09:06:47;20.60;44.30
45803;DHT22;31504;51.716;9.184;2023-04-15T09:09:48;20.60;44.50
45803;DHT22;31504;51.716;9.184;2023-04-15T09:12:48;20.60;44.60
45803;DHT22;31504;51.716;9.184;2023-04-15T09:15:49;20.60;44.60
45803;DHT22;31504;51.716;9.184;2023-04-15T09:18:49;20.60;44.70
45803;DHT22;31504;51.716;9.184;2023-04-15T09:21:52;20.60;44.80
45803;DHT22;31504;51.716;9.184;2023-04-15T09:24:53;20.60;44.80
45803;DHT22;31504;51.716;9.184;2023-04-15T09:27:54;20.60;44.80
45803;DHT22;31504;51.716;9.184;2023-04-15T09:30:56;20.60;44.90
45803;DHT22;31504;51.716;9.184;2023-04-15T09:33:57;20.60;44.90
45803;DHT22;31504;51.716;9.184;2023-04-15T09:36:57;20.60;45.00
45803;DHT22;31504;51.716;9.184;2023-04-15T09:39:57;20.60;45.00
45803;DHT22;31504;51.716;9.184;2023-04-15T09:42:58;20.70;45.00
45803;DHT22;31504;51.716;9.184;2023-04-15T09:45:58;20.70;45.00
45803;DHT22;31504;51.716;9.184;2023-04-15T09:49:11;20.70;45.00
45803;DHT22;31504;51.716;9.184;2023-04-15T09:52:12;20.70;45.20
45803;DHT22;31504;51.716;9.184;2023-04-15T09:55:13;20.70;45.40
45803;DHT22;31504;51.716;9.184;2023-04-15T09:58:24;20.70;45.70
45803;DHT22;31504;51.716;9.184;2023-04-15T10:01:24;20.70;45.90
45803;DHT22;31504;51.716;9.184;2023-04-15T10:04:25;20.70;45.90
45803;DHT22;31504;51.716;9.184;2023-04-15T10:07:27;20.70;46.00
45803;DHT22;31504;51.716;9.184;2023-04-15T10:10:28;20.70;46.00
45803;DHT22;31504;51.716;9.184;2023-04-15T10:13:29;20.70;45.90
45803;DHT22;31504;51.716;9.184;2023-04-15T10:16:32;20.70;45.90
45803;DHT22;31504;51.716;9.184;2023-04-15T10:19:35;20.70;45.80
45803;DHT22;31504;51.716;9.184;2023-04-15T10:22:36;20.70;45.80
45803;DHT22;31504;51.716;9.184;2023-04-15T10:25:37;20.70;45.80
45803;DHT22;31504;51.716;9.184;2023-04-15T10:28:37;20.70;45.90
45803;DHT22;31504;51.716;9.184;2023-04-15T10:31:38;20.70;46.20
45803;DHT22;31504;51.716;9.184;2023-04-15T10:34:39;20.70;46.30
45803;DHT22;31504;51.716;9.184;2023-04-15T10:37:39;20.70;46.20
45803;DHT22;31504;51.716;9.184;2023-04-15T10:40:40;20.70;46.00
45803;DHT22;31504;51.716;9.184;2023-04-15T10:43:47;20.70;45.90
45803;DHT22;31504;51.716;9.184;2023-04-15T10:46:50;20.70;45.90
45803;DHT22;31504;51.716;9.184;2023-04-15T10:49:54;20.70;46.00
45803;DHT22;31504;51.716;9.184;2023-04-15T10:52:56;20.70;46.00
45803;DHT22;31504;51.716;9.184;2023-04-15T10:55:57;20.70;45.90
45803;DHT22;31504;51.716;9.184;2023-04-15T10:58:58;20.70;45.80
45803;DHT22;31504;51.716;9.184;2023-04-15T11:02:05;20.70;45.70
45803;DHT22;31504;51.716;9.184;2023-04-15T11:05:06;20.70;45.80
45803;DHT22;31504;51.716;9.184;2023-04-15T11:08:07;20.70;45.70
45803;DHT22;31504;51.716;9.184;2023-04-15T11:11:08;20.60;45.60
45803;DHT22;31504;51.716;9.184;2023-04-15T11:14:13;20.70;45.70
45803;DHT22;31504;51.716;9.184;2023-04-15T11:17:13;20.60;45.60
45803;DHT22;31504;51.716;9.184;2023-04-15T11:20:14;20.70;45.70
45803;DHT22;31504;51.716;9.184;2023-04-15T11:23:16;20.70;45.70
45803;DHT22;31504;51.716;9.184;2023-04-15T11:26:17;20.60;45.50
45803;DHT22;31504;51.716;9.184;2023-04-15T11:29:17;20.60;45.50
45803;DHT22;31504;51.716;9.184;2023-04-15T11:32:18;20.60;45.50
45803;DHT22;31504;51.716;9.184;2023-04-15T11:35:18;20.60;45.60
45803;DHT22;31504;51.716;9.184;2023-04-15T11:38:19;20.60;45.60
45803;DHT22;31504;51.716;9.184;2023-04-15T11:41:20;20.60;45.60
45803;DHT22;31504;51.716;9.184;2023-04-15T11:44:21;20.60;45.60
45803;DHT22;31504;51.716;9.184;2023-04-15T11:47:22;20.60;45.50
45803;DHT22;31504;51.716;9.184;2023-04-15T11:50:22;20.70;45.60
45803;DHT22;31504;51.716;9.184;2023-04-15T11:53:23;20.60;45.60
45803;DHT22;31504;51.716;9.184;2023-04-15T11:56:24;20.60;45.70
45803;DHT22;31504;51.716;9.184;2023-04-15T11:59:25;20.60;45.70
45803;DHT22;31504;51.716;9.184;2023-04-15T12:02:35;20.60;45.80
45803;DHT22;31504;51.716;9.184;2023-04-15T12:05:36;20.60;45.70
45803;DHT22;31504;51.716;9.184;2023-04-15T12:11:56;20.60;45.60
45803;DHT22;31504;51.716;9.184;2023-04-15T12:14:57;20.60;45.50
45803;DHT22;31504;51.716;9.184;2023-04-15T12:17:58;20.60;45.50
45803;DHT22;31504;51.716;9.184;2023-04-15T12:21:03;20.60;45.50
45803;DHT22;31504;51.716;9.184;2023-04-15T12:24:08;20.60;45.90
45803;DHT22;31504;51.716;9.184;2023-04-15T12:27:14;20.60;45.90
45803;DHT22;31504;51.716;9.184;2023-04-15T12:30:14;20.60;45.80
45803;DHT22;31504;51.716;9.184;2023-04-15T12:33:15;20.60;45.80
45803;DHT22;31504;51.716;9.184;2023-04-15T12:36:15;20.60;45.70
45803;DHT22;31504;51.716;9.184;2023-04-15T12:39:16;20.60;45.70
45803;DHT22;31504;51.716;9.184;2023-04-15T12:42:16;20.60;45.70
45803;DHT22;31504;51.716;9.184;2023-04-15T12:45:17;20.60;45.60
45803;DHT22;31504;51.716;9.184;2023-04-15T12:48:17;20.60;45.60
45803;DHT22;31504;51.716;9.184;2023-04-15T12:51:18;20.60;45.60
45803;DHT22;31504;51.716;9.184;2023-04-15T12:54:21;20.60;45.70
45803;DHT22;31504;51.716;9.184;2023-04-15T12:57:21;20.60;45.70
45803;DHT22;31504;51.716;9.184;2023-04-15T13:00:22;20.60;45.70
45803;DHT22;31504;51.716;9.184;2023-04-15T13:03:23;20.60;45.90
45803;DHT22;31504;51.716;9.184;2023-04-15T13:06:23;20.60;45.80
45803;DHT22;31504;51.716;9.184;2023-04-15T13:09:24;20.60;45.70
45803;DHT22;31504;51.716;9.184;2023-04-15T13:12:25;20.60;45.80
45803;DHT22;31504;51.716;9.184;2023-04-15T13:15:26;20.60;45.90
45803;DHT22;31504;51.716;9.184;2023-04-15T13:18:26;20.60;45.90
45803;DHT22;31504;51.716;9.184;2023-04-15T13:21:27;20.70;46.10
45803;DHT22;31504;51.716;9.184;2023-04-15T13:24:27;20.70;46.10
45803;DHT22;31504;51.716;9.184;2023-04-15T13:27:28;20.70;46.20
45803;DHT22;31504;51.716;9.184;2023-04-15T13:30:28;20.70;46.40
45803;DHT22;31504;51.716;9.184;2023-04-15T13:33:28;20.70;46.40
45803;DHT22;31504;51.716;9.184;2023-04-15T13:36:29;20.70;46.50
45803;DHT22;31504;51.716;9.184;2023-04-15T13:39:30;20.70;46.50
45803;DHT22;31504;51.716;9.184;2023-04-15T13:42:31;20.70;46.80
45803;DHT22;31504;51.716;9.184;2023-04-15T13:45:31;20.70;46.80
45803;DHT22;31504;51.716;9.184;2023-04-15T13:48:32;20.70;46.80
45803;DHT22;31504;51.716;9.184;2023-04-15T13:51:32;20.70;46.90
45803;DHT22;31504;51.716;9.184;2023-04-15T13:54:35;20.80;47.00
45803;DHT22;31504;51.716;9.184;2023-04-15T13:57:35;20.70;47.10
45803;DHT22;31504;51.716;9.184;2023-04-15T14:00:36;20.80;47.20
45803;DHT22;31504;51.716;9.184;2023-04-15T14:03:36;20.70;47.30
45803;DHT22;31504;51.716;9.184;2023-04-15T14:06:37;20.70;47.50
45803;DHT22;31504;51.716;9.184;2023-04-15T14:09:37;20.70;48.30
45803;DHT22;31504;51.716;9.184;2023-04-15T14:12:38;20.80;48.10
45803;DHT22;31504;51.716;9.184;2023-04-15T14:15:38;20.80;47.90
45803;DHT22;31504;51.716;9.184;2023-04-15T14:18:39;20.80;48.20
45803;DHT22;31504;51.716;9.184;2023-04-15T14:21:39;20.80;48.20
45803;DHT22;31504;51.716;9.184;2023-04-15T14:24:40;20.90;48.30
45803;DHT22;31504;51.716;9.184;2023-04-15T14:27:40;20.80;48.20
45803;DHT22;31504;51.716;9.184;2023-04-15T14:30:41;20.80;48.10
45803;DHT22;31504;51.716;9.184;2023-04-15T14:33:41;20.80;48.00
45803;DHT22;31504;51.716;9.184;2023-04-15T14:36:42;20.80;48.50
45803;DHT22;31504;51.716;9.184;2023-04-15T14:39:42;20.80;48.30
45803;DHT22;31504;51.716;9.184;2023-04-15T14:42:42;20.80;48.60
45803;DHT22;31504;51.716;9.184;2023-04-15T14:45:43;20.90;48.80
45803;DHT22;31504;51.716;9.184;2023-04-15T14:48:43;20.90;48.80
45803;DHT22;31504;51.716;9.184;2023-04-15T14:51:44;20.90;48.70
45803;DHT22;31504;51.716;9.184;2023-04-15T14:54:45;20.90;48.90
45803;DHT22;31504;51.716;9.184;2023-04-15T14:57:45;20.90;48.90
45803;DHT22;31504;51.716;9.184;2023-04-15T15:00:46;20.90;48.80
45803;DHT22;31504;51.716;9.184;2023-04-15T15:03:47;20.90;49.10
45803;DHT22;31504;51.716;9.184;2023-04-15T15:06:48;20.90;49.30
45803;DHT22;31504;51.716;9.184;2023-04-15T15:09:48;20.90;49.20
45803;DHT22;31504;51.716;9.184;2023-04-15T15:12:49;20.90;49.00
45803;DHT22;31504;51.716;9.184;2023-04-15T15:15:50;20.90;49.20
45803;DHT22;31504;51.716;9.184;2023-04-15T15:18:50;20.90;49.10
45803;DHT22;31504;51.716;9.184;2023-04-15T15:21:50;20.90;49.30
45803;DHT22;31504;51.716;9.184;2023-04-15T15:24:51;20.90;49.50
45803;DHT22;31504;51.716;9.184;2023-04-15T15:27:52;20.90;49.40
45803;DHT22;31504;51.716;9.184;2023-04-15T15:30:53;20.90;49.50
45803;DHT22;31504;51.716;9.184;2023-04-15T15:33:53;20.90;49.40
45803;DHT22;31504;51.716;9.184;2023-04-15T15:36:53;20.90;49.40
45803;DHT22;31504;51.716;9.184;2023-04-15T15:39:55;20.90;49.30
45803;DHT22;31504;51.716;9.184;2023-04-15T15:42:55;20.90;49.50
45803;DHT22;31504;51.716;9.184;2023-04-15T15:45:55;20.90;49.50
45803;DHT22;31504;51.716;9.184;2023-04-15T15:48:56;20.90;49.70
45803;DHT22;31504;51.716;9.184;2023-04-15T15:51:57;20.90;49.60
45803;DHT22;31504;51.716;9.184;2023-04-15T15:54:57;20.90;49.50
45803;DHT22;31504;51.716;9.184;2023-04-15T15:57:58;20.90;49.40
45803;DHT22;31504;51.716;9.184;2023-04-15T16:00:58;20.90;49.40
45803;DHT22;31504;51.716;9.184;2023-04-15T16:03:58;20.90;49.30
45803;DHT22;31504;51.716;9.184;2023-04-15T16:06:59;20.90;49.30
45803;DHT22;31504;51.716;9.184;2023-04-15T16:10:00;20.90;49.40
45803;DHT22;31504;51.716;9.184;2023-04-15T16:13:00;20.90;49.50
45803;DHT22;31504;51.716;9.184;2023-04-15T16:16:01;20.90;49.70
45803;DHT22;31504;51.716;9.184;2023-04-15T16:19:02;20.90;50.10
45803;DHT22;31504;51.716;9.184;2023-04-15T16:22:02;21.00;50.20
45803;DHT22;31504;51.716;9.184;2023-04-15T16:25:02;21.00;50.30
45803;DHT22;31504;51.716;9.184;2023-04-15T16:28:03;21.00;50.60
45803;DHT22;31504;51.716;9.184;2023-04-15T16:31:03;21.00;50.70
45803;DHT22;31504;51.716;9.184;2023-04-15T16:34:04;21.00;50.60
45803;DHT22;31504;51.716;9.184;2023-04-15T16:37:05;21.00;50.70
45803;DHT22;31504;51.716;9.184;2023-04-15T16:40:06;20.90;50.90
45803;DHT22;31504;51.716;9.184;2023-04-15T16:43:06;21.00;51.00
45803;DHT22;31504;51.716;9.184;2023-04-15T16:46:07;21.00;51.00
45803;DHT22;31504;51.716;9.184;2023-04-15T16:49:08;21.00;50.90
45803;DHT22;31504;51.716;9.184;2023-04-15T16:52:08;21.00;50.90
45803;DHT22;31504;51.716;9.184;2023-04-15T16:55:08;21.00;51.00
45803;DHT22;31504;51.716;9.184;2023-04-15T16:58:09;21.00;51.10
45803;DHT22;31504;51.716;9.184;2023-04-15T17:01:09;21.00;51.00
45803;DHT22;31504;51.716;9.184;2023-04-15T17:04:10;21.00;50.90
45803;DHT22;31504;51.716;9.184;2023-04-15T17:07:10;21.00;51.00
45803;DHT22;31504;51.716;9.184;2023-04-15T17:10:11;21.00;51.10
45803;DHT22;31504;51.716;9.184;2023-04-15T17:13:13;21.00;51.30
45803;DHT22;31504;51.716;9.184;2023-04-15T17:16:13;21.00;51.30
45803;DHT22;31504;51.716;9.184;2023-04-15T17:19:14;21.10;51.40
45803;DHT22;31504;51.716;9.184;2023-04-15T17:22:14;21.10;51.40
45803;DHT22;31504;51.716;9.184;2023-04-15T17:25:16;21.10;51.50
45803;DHT22;31504;51.716;9.184;2023-04-15T17:28:16;21.10;51.40
45803;DHT22;31504;51.716;9.184;2023-04-15T17:31:17;21.10;51.40
45803;DHT22;31504;51.716;9.184;2023-04-15T17:34:17;21.10;51.70
45803;DHT22;31504;51.716;9.184;2023-04-15T17:37:18;21.10;52.00
45803;DHT22;31504;51.716;9.184;2023-04-15T17:40:19;21.10;52.00
45803;DHT22;31504;51.716;9.184;2023-04-15T17:43:19;21.20;51.90
45803;DHT22;31504;51.716;9.184;2023-04-15T17:46:20;21.20;52.00
45803;DHT22;31504;51.716;9.184;2023-04-15T17:49:20;21.10;52.10
45803;DHT22;31504;51.716;9.184;2023-04-15T17:52:21;21.10;52.30
45803;DHT22;31504;51.716;9.184;2023-04-15T17:55:21;21.10;52.70
45803;DHT22;31504;51.716;9.184;2023-04-15T17:58:24;21.20;52.80
45803;DHT22;31504;51.716;9.184;2023-04-15T18:01:25;21.20;52.90
45803;DHT22;31504;51.716;9.184;2023-04-15T18:04:25;21.20;52.60
45803;DHT22;31504;51.716;9.184;2023-04-15T18:07:26;21.20;52.80
45803;DHT22;31504;51.716;9.184;2023-04-15T18:10:26;21.20;53.10
45803;DHT22;31504;51.716;9.184;2023-04-15T18:13:27;21.20;53.20
45803;DHT22;31504;51.716;9.184;2023-04-15T18:16:27;21.10;53.00
45803;DHT22;31504;51.716;9.184;2023-04-15T18:19:28;21.10;52.90
45803;DHT22;31504;51.716;9.184;2023-04-15T18:22:28;21.10;53.00
45803;DHT22;31504;51.716;9.184;2023-04-15T18:25:30;21.20;53.10
45803;DHT22;31504;51.716;9.184;2023-04-15T18:28:30;21.20;53.00
45803;DHT22;31504;51.716;9.184;2023-04-15T18:31:30;21.20;53.10
45803;DHT22;31504;51.716;9.184;2023-04-15T18:34:32;21.20;53.30
45803;DHT22;31504;51.716;9.184;2023-04-15T18:37:32;21.20;53.10
45803;DHT22;31504;51.716;9.184;2023-04-15T18:40:33;21.20;53.00
45803;DHT22;31504;51.716;9.184;2023-04-15T18:43:34;21.20;52.90
45803;DHT22;31504;51.716;9.184;2023-04-15T18:46:34;21.20;53.00
45803;DHT22;31504;51.716;9.184;2023-04-15T18:49:34;21.20;53.00
45803;DHT22;31504;51.716;9.184;2023-04-15T18:52:35;21.20;52.90
45803;DHT22;31504;51.716;9.184;2023-04-15T18:55:37;21.20;53.00
45803;DHT22;31504;51.716;9.184;2023-04-15T18:58:37;21.20;53.00
45803;DHT22;31504;51.716;9.184;2023-04-15T19:01:38;21.20;53.30
45803;DHT22;31504;51.716;9.184;2023-04-15T19:04:38;21.20;53.30